createdAt,value
2018-01-08T00:01:00.277Z,95.00
2018-01-08T00:03:27.818Z,94.90
2018-01-08T00:05:55.344Z,94.90
2018-01-08T00:08:23.615Z,95.00
2018-01-08T00:10:51.908Z,94.90
2018-01-08T00:13:19.456Z,94.80
2018-01-08T00:15:47.733Z,94.90
2018-01-08T00:18:16.075Z,95.00
2018-01-08T00:20:43.568Z,94.90
2018-01-08T00:23:11.817Z,94.80
2018-01-08T00:25:39.355Z,94.70
2018-01-08T00:28:06.867Z,94.50
2018-01-08T00:30:34.386Z,94.60
2018-01-08T00:33:01.906Z,94.60
2018-01-08T00:35:29.410Z,94.50
2018-01-08T00:37:56.940Z,94.60
2018-01-08T00:40:24.447Z,94.70
2018-01-08T00:42:52.705Z,94.70
2018-01-08T00:45:20.978Z,94.70
2018-01-08T00:47:48.496Z,94.60
2018-01-08T00:50:15.972Z,94.60
2018-01-08T00:52:43.465Z,94.60
2018-01-08T00:55:11.714Z,94.80
2018-01-08T00:57:39.233Z,94.70
2018-01-08T01:00:06.730Z,94.60
2018-01-08T01:02:34.280Z,94.60
2018-01-08T01:05:01.764Z,94.60
2018-01-08T01:07:29.264Z,94.60
2018-01-08T01:09:56.764Z,94.60
2018-01-08T01:12:24.283Z,94.70
2018-01-08T01:14:51.770Z,94.70
2018-01-08T01:17:19.279Z,94.80
2018-01-08T01:19:46.785Z,94.70
2018-01-08T01:22:14.269Z,94.80
2018-01-08T01:24:41.788Z,94.70
2018-01-08T01:27:09.281Z,94.80
2018-01-08T01:29:36.775Z,94.80
2018-01-08T01:32:04.272Z,94.90
2018-01-08T01:34:31.829Z,94.80
2018-01-08T01:36:59.358Z,94.70
2018-01-08T01:39:26.867Z,94.80
2018-01-08T01:41:54.603Z,94.70
2018-01-08T01:44:22.131Z,94.70
2018-01-08T01:46:49.635Z,94.70
2018-01-08T01:49:20.856Z,94.70
2018-01-08T01:51:48.350Z,94.80
2018-01-08T01:54:15.850Z,94.70
2018-01-08T01:56:43.359Z,94.60
2018-01-08T01:59:10.849Z,94.70
2018-01-08T02:01:38.356Z,94.80
2018-01-08T02:04:05.825Z,94.90
2018-01-08T02:06:33.908Z,94.90
2018-01-08T02:09:01.415Z,94.90
2018-01-08T02:11:28.899Z,94.90
2018-01-08T02:14:02.447Z,94.90
2018-01-08T02:16:30.701Z,95.00
2018-01-08T02:18:58.198Z,94.90
2018-01-08T02:21:25.692Z,94.90
2018-01-08T02:23:53.175Z,94.90
2018-01-08T02:26:20.678Z,95.10
2018-01-08T02:28:48.171Z,95.00
2018-01-08T02:31:15.725Z,95.00
2018-01-08T02:33:43.190Z,94.90
2018-01-08T02:36:10.690Z,95.00
2018-01-08T02:38:38.203Z,94.80
2018-01-08T02:41:05.725Z,94.90
2018-01-08T02:43:33.212Z,94.90
2018-01-08T02:46:00.699Z,94.90
2018-01-08T02:48:28.199Z,95.00
2018-01-08T02:50:55.699Z,95.10
2018-01-08T02:53:23.176Z,95.10
2018-01-08T02:55:51.440Z,95.10
2018-01-08T02:58:18.918Z,95.10
2018-01-08T03:00:46.421Z,95.10
2018-01-08T03:03:13.927Z,95.00
2018-01-08T03:05:42.179Z,95.10
2018-01-08T03:08:09.685Z,95.00
2018-01-08T03:10:37.214Z,95.00
2018-01-08T03:13:04.704Z,95.00
2018-01-08T03:15:32.197Z,95.00
2018-01-08T03:17:59.705Z,94.90
2018-01-08T03:20:27.955Z,95.10
2018-01-08T03:22:55.471Z,95.00
2018-01-08T03:25:22.961Z,94.90
2018-01-08T03:27:50.464Z,95.10
2018-01-08T03:30:17.984Z,95.00
2018-01-08T03:32:45.477Z,95.10
2018-01-08T03:35:12.954Z,95.10
2018-01-08T03:37:40.457Z,95.10
2018-01-08T03:40:07.954Z,95.10
2018-01-08T03:42:35.437Z,95.40
2018-01-08T03:45:02.928Z,94.90
2018-01-08T03:47:30.398Z,94.90
2018-01-08T03:49:59.348Z,95.30
2018-01-08T03:52:30.195Z,94.80
2018-01-08T03:54:57.829Z,94.70
2018-01-08T03:57:27.124Z,94.90
2018-01-08T03:59:55.852Z,94.90
2018-01-08T04:02:24.226Z,94.70
2018-01-08T04:04:51.950Z,94.90
2018-01-08T04:07:21.111Z,95.00
2018-01-08T04:09:49.407Z,95.10
2018-01-08T04:12:17.670Z,95.10
2018-01-08T04:14:45.210Z,95.00
2018-01-08T04:17:13.551Z,95.10
2018-01-08T04:19:41.080Z,94.90
2018-01-08T04:22:08.654Z,95.00
2018-01-08T04:24:36.564Z,95.10
2018-01-08T04:27:04.095Z,95.20
2018-01-08T04:29:31.622Z,95.10
2018-01-08T04:31:59.139Z,94.90
2018-01-08T04:34:26.670Z,95.10
2018-01-08T04:36:54.154Z,95.10
2018-01-08T04:39:21.683Z,95.20
2018-01-08T04:41:49.189Z,95.20
2018-01-08T04:44:16.673Z,95.00
2018-01-08T04:46:44.191Z,95.30
2018-01-08T04:49:11.680Z,95.20
2018-01-08T04:51:39.198Z,95.10
2018-01-08T04:54:06.708Z,95.30
2018-01-08T04:56:34.213Z,95.20
2018-01-08T04:59:04.648Z,95.30
2018-01-08T05:01:32.970Z,95.40
2018-01-08T05:04:00.477Z,95.10
2018-01-08T05:06:29.586Z,95.40
2018-01-08T05:08:59.975Z,95.30
2018-01-08T05:11:27.645Z,95.20
2018-01-08T05:13:59.957Z,95.40
2018-01-08T05:16:28.231Z,95.60
2018-01-08T05:18:56.554Z,94.40
2018-01-08T05:21:24.053Z,95.40
2018-01-08T05:23:51.640Z,95.60
2018-01-08T05:26:20.982Z,95.80
2018-01-08T05:28:48.566Z,95.60
2018-01-08T05:31:16.107Z,95.50
2018-01-08T05:33:43.645Z,95.70
2018-01-08T05:36:12.214Z,95.40
2018-01-08T05:38:40.098Z,95.70
2018-01-08T05:41:09.972Z,95.40
2018-01-08T05:43:38.302Z,96.20
2018-01-08T05:46:06.815Z,95.80
2018-01-08T05:48:34.401Z,95.60
2018-01-08T05:51:02.657Z,96.00
2018-01-08T05:53:34.750Z,95.90
2018-01-08T05:56:02.311Z,95.80
2018-01-08T05:58:30.704Z,96.00
2018-01-08T06:00:58.236Z,95.90
2018-01-08T06:03:26.501Z,96.30
2018-01-08T06:05:54.039Z,96.20
2018-01-08T06:08:21.538Z,96.10
2018-01-08T06:10:49.034Z,96.10
2018-01-08T06:13:16.516Z,96.10
2018-01-08T06:15:43.977Z,96.20
2018-01-08T06:18:11.483Z,96.30
2018-01-08T06:20:38.976Z,96.20
2018-01-08T06:23:06.457Z,96.30
2018-01-08T06:25:33.976Z,96.30
2018-01-08T06:28:01.466Z,96.40
2018-01-08T06:30:28.985Z,96.30
2018-01-08T06:32:56.471Z,96.20
2018-01-08T06:35:23.981Z,96.20
2018-01-08T06:37:51.494Z,96.20
2018-01-08T06:40:19.016Z,96.30
2018-01-08T06:42:46.516Z,96.20
2018-01-08T06:45:14.246Z,96.20
2018-01-08T06:47:41.730Z,96.20
2018-01-08T06:50:09.267Z,96.10
2018-01-08T06:52:36.769Z,96.20
2018-01-08T06:55:04.271Z,96.20
2018-01-08T06:57:31.783Z,96.30
2018-01-08T07:00:00.075Z,96.30
2018-01-08T07:02:28.336Z,96.20
2018-01-08T07:04:56.584Z,96.30
2018-01-08T07:07:24.307Z,96.20
2018-01-08T07:09:51.808Z,96.10
2018-01-08T07:12:19.656Z,96.10
2018-01-08T07:14:47.179Z,96.00
2018-01-08T07:17:14.688Z,96.10
2018-01-08T07:19:42.206Z,96.10
2018-01-08T07:22:09.697Z,96.00
2018-01-08T07:24:37.225Z,96.00
2018-01-08T07:27:04.747Z,95.90
2018-01-08T07:29:32.279Z,96.00
2018-01-08T07:31:59.754Z,95.80
2018-01-08T07:34:28.012Z,95.90
2018-01-08T07:36:55.508Z,95.70
2018-01-08T07:39:23.539Z,95.70
2018-01-08T07:41:51.100Z,95.70
2018-01-08T07:44:19.420Z,95.70
2018-01-08T07:46:47.015Z,95.70
2018-01-08T07:49:15.474Z,95.40
2018-01-08T07:51:43.032Z,95.40
2018-01-08T07:54:10.544Z,95.60
2018-01-08T07:56:38.073Z,95.60
2018-01-08T07:59:06.172Z,95.50
2018-01-08T08:01:35.950Z,95.30
2018-01-08T08:04:03.958Z,95.40
2018-01-08T08:06:33.269Z,95.60
2018-01-08T08:09:00.868Z,95.50
2018-01-08T08:11:28.372Z,95.40
2018-01-08T08:13:56.651Z,95.50
2018-01-08T08:16:25.598Z,95.90
2018-01-08T08:18:53.609Z,95.50
2018-01-08T08:21:21.212Z,95.40
2018-01-08T08:23:48.922Z,95.20
2018-01-08T08:26:17.511Z,95.50
2018-01-08T08:28:45.137Z,95.40
2018-01-08T08:31:12.728Z,95.30
2018-01-08T08:33:40.369Z,95.10
2018-01-08T08:36:07.875Z,95.10
2018-01-08T08:38:36.162Z,95.30
2018-01-08T08:41:04.692Z,95.30
2018-01-08T08:43:32.220Z,95.40
2018-01-08T08:45:59.736Z,95.40
2018-01-08T08:48:28.158Z,95.30
2018-01-08T08:50:56.733Z,95.10
2018-01-08T08:53:24.313Z,95.20
2018-01-08T08:55:51.870Z,95.00
2018-01-08T08:58:19.405Z,94.90
2018-01-08T09:00:46.982Z,95.00
2018-01-08T09:03:16.674Z,94.80
2018-01-08T09:05:44.263Z,95.10
2018-01-08T09:08:11.820Z,95.00
2018-01-08T09:10:42.104Z,95.00
2018-01-08T09:13:11.293Z,95.10
2018-01-08T09:15:38.915Z,95.30
2018-01-08T09:20:47.601Z,95.10
2018-01-08T09:23:15.178Z,94.70
2018-01-08T09:25:42.693Z,95.20
2018-01-08T09:28:10.241Z,95.10
2018-01-08T09:30:38.541Z,95.30
2018-01-08T09:33:06.866Z,95.10
2018-01-08T09:35:34.420Z,95.00
2018-01-08T09:38:01.969Z,95.10
2018-01-08T09:40:29.523Z,95.10
2018-01-08T09:42:57.086Z,95.00
2018-01-08T09:45:24.634Z,95.10
2018-01-08T09:47:52.217Z,95.00
2018-01-08T09:50:19.736Z,94.90
2018-01-08T09:52:47.837Z,94.90
2018-01-08T09:55:15.420Z,94.70
2018-01-08T09:57:45.318Z,95.00
2018-01-08T10:00:15.245Z,94.80
2018-01-08T10:02:57.328Z,95.10
2018-01-08T10:05:36.902Z,95.00
2018-01-08T10:08:16.376Z,95.10
2018-01-08T10:10:57.245Z,95.20
2018-01-08T10:13:37.258Z,95.10
2018-01-08T10:16:18.051Z,95.00
2018-01-08T10:18:46.296Z,95.00
2018-01-08T10:21:13.837Z,95.00
2018-01-08T10:23:42.483Z,94.80
2018-01-08T10:26:10.760Z,95.00
2018-01-08T10:28:39.015Z,95.00
2018-01-08T10:31:06.575Z,94.80
2018-01-08T10:33:34.120Z,94.80
2018-01-08T10:36:01.643Z,94.70
2018-01-08T10:38:29.133Z,94.60
2018-01-08T10:40:56.219Z,94.80
2018-01-08T10:43:30.203Z,94.80
2018-01-08T10:46:03.312Z,94.70
2018-01-08T10:48:36.444Z,94.40
2018-01-08T10:51:09.490Z,94.60
2018-01-08T10:53:37.450Z,94.60
2018-01-08T10:56:05.715Z,94.80
2018-01-08T10:58:33.195Z,94.60
2018-01-08T11:01:06.388Z,94.60
2018-01-08T11:03:40.393Z,94.70
2018-01-08T11:06:08.693Z,94.70
2018-01-08T11:08:36.274Z,94.50
2018-01-08T11:11:03.801Z,94.40
2018-01-08T11:13:31.354Z,94.50
2018-01-08T11:15:58.852Z,94.90
2018-01-08T11:18:26.365Z,94.60
2018-01-08T11:20:53.887Z,94.60
2018-01-08T11:23:22.225Z,94.60
2018-01-08T11:25:49.751Z,94.30
2018-01-08T11:28:17.285Z,94.50
2018-01-08T11:30:44.811Z,94.50
2018-01-08T11:33:12.330Z,94.60
2018-01-08T11:35:40.591Z,94.50
2018-01-08T11:38:08.106Z,94.40
2018-01-08T11:40:35.594Z,94.40
2018-01-08T11:43:03.123Z,94.40
2018-01-08T11:45:30.648Z,94.50
2018-01-08T11:47:58.147Z,94.50
2018-01-08T11:50:25.647Z,94.40
2018-01-08T11:52:53.945Z,94.40
2018-01-08T11:55:21.447Z,94.30
2018-01-08T11:57:48.960Z,94.30
2018-01-08T12:00:17.233Z,94.90
2018-01-08T12:02:44.772Z,94.40
2018-01-08T12:05:13.719Z,94.30
2018-01-08T12:07:41.224Z,94.30
2018-01-08T12:10:08.753Z,94.30
2018-01-08T12:12:36.285Z,94.10
2018-01-08T12:15:03.794Z,94.30
2018-01-08T12:17:31.275Z,94.20
2018-01-08T12:19:59.533Z,94.20
2018-01-08T12:22:27.046Z,94.20
2018-01-08T12:24:54.552Z,94.00
2018-01-08T12:27:22.819Z,94.00
2018-01-08T12:29:51.091Z,94.10
2018-01-08T12:32:19.371Z,94.00
2018-01-08T12:34:47.649Z,93.80
2018-01-08T12:37:15.913Z,94.00
2018-01-08T12:39:43.410Z,93.80
2018-01-08T12:42:11.351Z,94.00
2018-01-08T12:44:39.623Z,94.00
2018-01-08T12:47:07.135Z,93.90
2018-01-08T12:49:34.625Z,93.90
2018-01-08T12:52:02.147Z,93.90
2018-01-08T12:54:29.755Z,93.80
2018-01-08T12:56:57.272Z,93.80
2018-01-08T12:59:24.797Z,93.70
2018-01-08T13:01:53.055Z,94.00
2018-01-08T13:04:21.341Z,93.90
2018-01-08T13:06:48.864Z,93.80
2018-01-08T13:09:16.351Z,93.70
2018-01-08T13:11:43.882Z,93.70
2018-01-08T13:14:11.367Z,93.60
2018-01-08T13:16:39.676Z,93.80
2018-01-08T13:19:07.292Z,93.70
2018-01-08T13:21:34.864Z,93.70
2018-01-08T13:24:02.422Z,93.50
2018-01-08T13:26:30.443Z,93.70
2018-01-08T13:28:57.962Z,93.60
2018-01-08T13:31:25.488Z,93.60
2018-01-08T13:33:53.045Z,93.60
2018-01-08T13:36:20.590Z,93.70
2018-01-08T13:38:48.166Z,93.50
2018-01-08T13:41:15.809Z,93.60
2018-01-08T13:43:43.553Z,93.70
2018-01-08T13:46:11.110Z,93.90
2018-01-08T13:48:38.844Z,93.60
2018-01-08T13:51:06.357Z,93.30
2018-01-08T13:53:33.891Z,93.60
2018-01-08T13:56:01.814Z,93.60
2018-01-08T13:58:29.345Z,93.40
2018-01-08T14:00:56.883Z,93.30
2018-01-08T14:03:24.390Z,93.50
2018-01-08T14:05:51.989Z,93.60
2018-01-08T14:08:20.884Z,93.50
2018-01-08T14:10:48.438Z,93.50
2018-01-08T14:13:16.005Z,93.40
2018-01-08T14:15:43.575Z,93.40
2018-01-08T14:18:11.132Z,93.40
2018-01-08T14:20:38.701Z,93.40
2018-01-08T14:23:06.251Z,93.40
2018-01-08T14:25:33.763Z,93.40
2018-01-08T14:28:01.253Z,93.40
2018-01-08T14:30:28.843Z,93.30
2018-01-08T14:32:56.390Z,93.40
2018-01-08T14:35:23.983Z,93.50
2018-01-08T14:37:51.589Z,93.40
2018-01-08T14:40:19.174Z,93.40
2018-01-08T14:42:46.690Z,93.20
2018-01-08T14:45:14.238Z,93.40
2018-01-08T14:47:41.776Z,93.20
2018-01-08T14:50:09.412Z,93.40
2018-01-08T14:52:36.914Z,93.40
2018-01-08T14:55:05.178Z,93.40
2018-01-08T14:57:32.713Z,93.30
2018-01-08T15:00:00.207Z,93.40
2018-01-08T15:02:28.471Z,93.30
2018-01-08T15:04:55.980Z,93.10
2018-01-08T15:07:23.500Z,93.50
2018-01-08T15:09:51.028Z,93.40
2018-01-08T15:12:18.595Z,93.40
2018-01-08T15:14:46.111Z,93.20
2018-01-08T15:17:13.597Z,93.20
2018-01-08T15:19:41.094Z,93.20
2018-01-08T15:22:08.614Z,93.40
2018-01-08T15:24:36.132Z,93.00
2018-01-08T15:27:03.684Z,93.20
2018-01-08T15:29:31.929Z,93.20
2018-01-08T15:32:00.203Z,93.20
2018-01-08T15:34:27.687Z,93.20
2018-01-08T15:36:55.199Z,93.20
2018-01-08T15:39:22.706Z,93.10
2018-01-08T15:41:50.506Z,93.20
2018-01-08T15:44:18.000Z,93.20
2018-01-08T15:46:45.512Z,93.10
2018-01-08T15:49:13.025Z,93.00
2018-01-08T15:51:40.512Z,93.10
2018-01-08T15:54:08.255Z,92.90
2018-01-08T15:56:36.068Z,93.00
2018-01-08T15:59:03.719Z,93.10
2018-01-08T16:01:31.292Z,93.00
2018-01-08T16:03:58.862Z,93.00
2018-01-08T16:06:26.369Z,92.90
2018-01-08T16:08:53.907Z,92.90
2018-01-08T16:11:21.438Z,92.80
2018-01-08T16:13:48.975Z,93.00
2018-01-08T16:16:17.603Z,93.00
2018-01-08T16:18:45.938Z,93.20
2018-01-08T16:21:13.844Z,93.00
2018-01-08T16:23:41.471Z,92.90
2018-01-08T16:26:09.109Z,93.00
2018-01-08T16:28:36.647Z,93.00
2018-01-08T16:31:04.176Z,92.90
2018-01-08T16:33:32.479Z,93.10
2018-01-08T16:35:59.963Z,92.90
2018-01-08T16:38:27.485Z,92.80
2018-01-08T16:40:54.991Z,92.90
2018-01-08T16:43:22.478Z,92.90
2018-01-08T16:45:50.051Z,92.80
2018-01-08T16:48:17.568Z,92.90
2018-01-08T16:50:45.191Z,92.90
2018-01-08T16:53:12.788Z,92.70
2018-01-08T16:55:40.290Z,92.90
2018-01-08T16:58:08.635Z,93.00
2018-01-08T17:00:36.167Z,92.90
2018-01-08T17:03:04.495Z,93.00
2018-01-08T17:05:32.050Z,93.00
2018-01-08T17:08:01.063Z,93.00
2018-01-08T17:10:29.222Z,92.80
2018-01-08T17:12:56.828Z,92.80
2018-01-08T17:15:24.346Z,93.00
2018-01-08T17:17:51.869Z,92.70
2018-01-08T17:20:19.375Z,92.70
2018-01-08T17:22:47.684Z,92.90
2018-01-08T17:25:15.210Z,92.80
2018-01-08T17:27:42.748Z,92.70
2018-01-08T17:30:10.280Z,92.80
2018-01-08T17:32:37.776Z,92.70
2018-01-08T17:35:05.309Z,92.60
2018-01-08T17:37:32.814Z,92.70
2018-01-08T17:40:00.298Z,92.60
2018-01-08T17:42:27.820Z,92.60
2018-01-08T17:44:55.352Z,92.60
2018-01-08T17:47:22.861Z,92.70
2018-01-08T17:49:50.371Z,92.50
2018-01-08T17:52:17.884Z,92.60
2018-01-08T17:54:45.395Z,92.50
2018-01-08T17:57:12.883Z,92.50
2018-01-08T17:59:40.469Z,92.60
2018-01-08T18:02:07.935Z,92.50
2018-01-08T18:04:35.481Z,92.60
2018-01-08T18:07:02.974Z,92.60
2018-01-08T18:09:30.517Z,92.70
2018-01-08T18:11:58.011Z,92.70
2018-01-08T18:14:26.278Z,92.80
2018-01-08T18:16:54.029Z,92.70
2018-01-08T18:19:22.333Z,92.70
2018-01-08T18:21:50.615Z,93.40
2018-01-08T18:24:18.137Z,92.70
2018-01-08T18:26:45.609Z,92.80
2018-01-08T18:29:13.884Z,92.90
2018-01-08T18:31:42.175Z,92.70
2018-01-08T18:34:10.435Z,92.70
2018-01-08T18:36:38.718Z,92.60
2018-01-08T18:39:07.001Z,92.60
2018-01-08T18:44:08.355Z,92.50
2018-01-08T18:46:35.860Z,92.50
2018-01-08T18:49:03.334Z,92.50
2018-01-08T18:51:30.836Z,92.40
2018-01-08T18:53:59.248Z,92.70
2018-01-08T18:56:26.767Z,92.50
2018-01-08T18:58:55.023Z,92.60
2018-01-08T19:01:22.506Z,92.50
2018-01-08T19:03:50.069Z,92.70
2018-01-08T19:06:17.577Z,92.60
2018-01-08T19:08:45.852Z,92.80
2018-01-08T19:11:13.368Z,92.70
2018-01-08T19:13:41.671Z,92.80
2018-01-08T19:16:09.164Z,92.70
2018-01-08T19:18:36.721Z,92.70
2018-01-08T19:21:04.464Z,92.70
2018-01-08T19:23:33.513Z,92.60
2018-01-08T19:26:01.037Z,92.70
2018-01-08T19:28:28.563Z,92.60
2018-01-08T19:30:56.060Z,92.60
2018-01-08T19:33:23.564Z,92.40
2018-01-08T19:35:51.073Z,92.70
2018-01-08T19:38:19.115Z,92.50
2018-01-08T19:40:46.605Z,92.50
2018-01-08T19:43:14.076Z,92.50
2018-01-08T19:45:42.332Z,92.60
2018-01-08T19:48:10.603Z,92.70
2018-01-08T19:50:38.109Z,92.70
2018-01-08T19:53:05.600Z,92.70
2018-01-08T19:55:33.104Z,92.70
2018-01-08T19:58:01.356Z,92.80
2018-01-08T20:00:28.859Z,92.60
2018-01-08T20:02:56.381Z,92.70
2018-01-08T20:05:23.893Z,92.70
2018-01-08T20:07:51.416Z,92.70
2018-01-08T20:10:18.978Z,92.60
2018-01-08T20:12:46.514Z,92.70
2018-01-08T20:15:14.019Z,92.70
2018-01-08T20:17:41.533Z,92.80
2018-01-08T20:20:09.046Z,92.70
2018-01-08T20:22:36.592Z,92.70
2018-01-08T20:25:04.888Z,92.80
2018-01-08T20:27:32.403Z,92.70
2018-01-08T20:30:00.653Z,92.80
2018-01-08T20:32:28.177Z,92.80
2018-01-08T20:34:55.651Z,92.90
2018-01-08T20:37:23.159Z,92.80
2018-01-08T20:39:51.428Z,93.00
2018-01-08T20:42:19.696Z,93.00
2018-01-08T20:44:47.210Z,92.80
2018-01-08T20:47:14.687Z,92.90
2018-01-08T20:49:42.156Z,92.90
2018-01-08T20:52:11.196Z,92.90
2018-01-08T20:54:39.565Z,92.80
2018-01-08T20:57:07.090Z,92.80
2018-01-08T20:59:35.479Z,93.00
2018-01-08T21:02:03.140Z,92.80
2018-01-08T21:04:30.756Z,92.70
2018-01-08T21:06:58.292Z,92.70
2018-01-08T21:09:26.697Z,92.70
2018-01-08T21:11:55.097Z,93.00
2018-01-08T21:14:22.709Z,92.90
2018-01-08T21:16:50.338Z,92.90
2018-01-08T21:19:17.974Z,92.80
2018-01-08T21:21:45.483Z,92.80
2018-01-08T21:24:13.066Z,92.80
2018-01-08T21:26:40.563Z,92.80
2018-01-08T21:29:08.054Z,92.90
2018-01-08T21:31:35.543Z,92.80
2018-01-08T21:34:03.818Z,93.00
2018-01-08T21:36:31.306Z,92.90
2018-01-08T21:38:58.789Z,93.20
2018-01-08T21:41:27.069Z,92.90
2018-01-08T21:43:54.532Z,92.90
2018-01-08T21:46:22.001Z,92.90
2018-01-08T21:48:49.528Z,92.80
2018-01-08T21:51:16.992Z,92.80
2018-01-08T21:53:44.545Z,92.80
2018-01-08T21:56:12.797Z,93.00
2018-01-08T21:58:40.285Z,92.90
2018-01-08T22:01:08.538Z,93.00
2018-01-08T22:03:36.030Z,92.90
2018-01-08T22:06:03.524Z,93.20
2018-01-08T22:08:31.015Z,92.90
2018-01-08T22:10:58.489Z,92.90
2018-01-08T22:13:25.974Z,92.90
2018-01-08T22:15:53.453Z,92.90
2018-01-08T22:18:20.966Z,92.90
2018-01-08T22:20:49.212Z,93.00
2018-01-08T22:23:16.742Z,92.80
2018-01-08T22:25:44.243Z,92.80
2018-01-08T22:28:11.728Z,93.30
2018-01-08T22:30:39.964Z,93.00
2018-01-08T22:33:07.488Z,92.90
2018-01-08T22:35:34.972Z,92.90
2018-01-08T22:38:02.663Z,93.00
2018-01-08T22:40:30.184Z,93.00
2018-01-08T22:42:57.660Z,93.00
2018-01-08T22:45:25.507Z,93.00
2018-01-08T22:47:53.082Z,93.00
2018-01-08T22:50:20.629Z,93.00
2018-01-08T22:52:48.135Z,93.00
2018-01-08T22:55:15.701Z,92.80
2018-01-08T22:57:43.191Z,92.80
2018-01-08T23:00:11.302Z,93.00
2018-01-08T23:02:39.669Z,93.10
2018-01-08T23:05:07.984Z,93.10
2018-01-08T23:07:36.161Z,92.90
2018-01-08T23:10:03.724Z,93.00
2018-01-08T23:12:32.166Z,93.00
2018-01-08T23:14:59.750Z,93.10
2018-01-08T23:17:27.316Z,93.10
2018-01-08T23:19:54.860Z,93.10
2018-01-08T23:22:22.442Z,92.90
2018-01-08T23:24:50.078Z,93.00
2018-01-08T23:27:17.578Z,93.10
2018-01-08T23:29:45.145Z,93.00
2018-01-08T23:32:12.668Z,93.10
2018-01-08T23:34:40.300Z,93.10
2018-01-08T23:37:08.660Z,93.00
2018-01-08T23:39:36.976Z,93.30
2018-01-08T23:42:04.519Z,93.20
2018-01-08T23:44:32.199Z,93.10
2018-01-08T23:47:00.607Z,93.20
2018-01-08T23:49:28.158Z,93.20
2018-01-08T23:51:55.724Z,93.30
2018-01-08T23:54:23.997Z,93.30
2018-01-08T23:56:51.718Z,93.20
2018-01-08T23:59:19.838Z,93.20
